createdAt,value
2022-10-26T00:01:09.198Z,14.33
2022-10-26T00:03:37.382Z,14.36
2022-10-26T00:06:12.667Z,14.11
2022-10-26T00:08:40.092Z,14.35
2022-10-26T00:11:07.520Z,14.07
2022-10-26T00:13:34.936Z,14.19
2022-10-26T00:16:02.464Z,14.10
2022-10-26T00:18:29.402Z,14.02
2022-10-26T00:21:02.422Z,14.09
2022-10-26T00:23:29.306Z,14.22
2022-10-26T00:25:57.477Z,14.17
2022-10-26T00:28:24.486Z,14.19
2022-10-26T00:30:51.641Z,14.15
2022-10-26T00:33:19.254Z,14.13
2022-10-26T00:35:53.434Z,14.14
2022-10-26T00:38:20.872Z,14.07
2022-10-26T00:40:48.188Z,14.13
2022-10-26T00:43:33.770Z,14.14
2022-10-26T00:46:03.308Z,14.14
2022-10-26T00:48:34.621Z,13.80
2022-10-26T00:51:07.004Z,14.17
2022-10-26T00:53:34.193Z,13.98
2022-10-26T00:56:02.339Z,14.18
2022-10-26T00:58:29.590Z,14.08
2022-10-26T01:00:56.961Z,14.16
2022-10-26T01:03:28.245Z,14.12
2022-10-26T01:05:57.836Z,13.97
2022-10-26T01:08:28.280Z,13.91
2022-10-26T01:10:58.267Z,14.04
2022-10-26T01:13:28.552Z,14.00
2022-10-26T01:16:16.909Z,14.12
2022-10-26T01:18:49.696Z,14.13
2022-10-26T01:21:19.519Z,14.15
2022-10-26T01:24:13.426Z,14.08
2022-10-26T01:26:49.128Z,14.08
2022-10-26T01:29:37.153Z,14.02
2022-10-26T01:32:14.719Z,14.08
2022-10-26T01:34:52.127Z,13.86
2022-10-26T01:37:32.217Z,14.01
2022-10-26T01:40:06.990Z,13.71
2022-10-26T01:42:37.576Z,13.84
2022-10-26T01:45:08.418Z,13.23
2022-10-26T01:47:38.233Z,13.87
2022-10-26T01:50:06.329Z,13.77
2022-10-26T01:52:33.869Z,13.91
2022-10-26T01:55:39.097Z,13.99
2022-10-26T01:58:32.381Z,14.00
2022-10-26T02:01:18.924Z,13.93
2022-10-26T02:04:08.086Z,13.93
2022-10-26T02:06:43.879Z,13.95
2022-10-26T02:09:22.617Z,13.88
2022-10-26T02:11:53.345Z,13.69
2022-10-26T02:14:33.523Z,13.80
2022-10-26T02:17:13.383Z,13.70
2022-10-26T02:19:46.138Z,13.62
2022-10-26T02:22:23.422Z,13.87
2022-10-26T02:24:52.848Z,13.67
2022-10-26T02:27:36.082Z,13.42
2022-10-26T02:30:05.040Z,13.85
2022-10-26T02:32:37.944Z,13.70
2022-10-26T02:35:06.246Z,13.39
2022-10-26T02:37:36.679Z,13.66
2022-10-26T02:40:09.226Z,13.45
2022-10-26T02:42:37.723Z,13.63
2022-10-26T02:45:10.705Z,13.65
2022-10-26T02:47:37.795Z,13.53
2022-10-26T02:50:05.068Z,13.43
2022-10-26T02:53:16.736Z,13.63
2022-10-26T02:55:49.560Z,13.47
2022-10-26T02:58:41.955Z,13.49
2022-10-26T03:01:08.941Z,13.53
2022-10-26T03:03:35.954Z,13.41
2022-10-26T03:06:02.874Z,13.41
2022-10-26T03:08:29.905Z,13.56
2022-10-26T03:10:56.813Z,13.48
2022-10-26T03:13:23.803Z,13.41
2022-10-26T03:15:50.752Z,13.25
2022-10-26T03:18:17.706Z,13.55
2022-10-26T03:20:45.880Z,13.54
2022-10-26T03:23:12.800Z,13.37
2022-10-26T03:25:39.620Z,13.26
2022-10-26T03:28:07.468Z,13.23
2022-10-26T03:30:34.486Z,13.44
2022-10-26T03:33:01.739Z,13.02
2022-10-26T03:35:28.690Z,13.29
2022-10-26T03:37:55.656Z,13.40
2022-10-26T03:40:22.546Z,13.24
2022-10-26T03:42:49.635Z,13.21
2022-10-26T03:45:16.819Z,13.13
2022-10-26T03:47:45.224Z,13.05
2022-10-26T03:50:13.794Z,13.09
2022-10-26T03:52:41.291Z,13.11
2022-10-26T03:55:09.324Z,12.80
2022-10-26T03:57:41.699Z,12.85
2022-10-26T04:00:10.318Z,13.03
2022-10-26T04:02:46.932Z,12.82
2022-10-26T04:05:15.352Z,12.93
2022-10-26T04:07:42.728Z,13.02
2022-10-26T04:10:09.958Z,12.95
2022-10-26T04:12:38.341Z,12.95
2022-10-26T04:15:07.252Z,12.99
2022-10-26T04:17:34.523Z,12.86
2022-10-26T04:20:01.477Z,12.74
2022-10-26T04:22:28.422Z,12.90
2022-10-26T04:24:55.342Z,12.84
2022-10-26T04:27:22.303Z,12.43
2022-10-26T04:29:49.398Z,12.88
2022-10-26T04:32:16.296Z,12.77
2022-10-26T04:41:28.951Z,12.98
2022-10-26T04:43:55.842Z,12.74
2022-10-26T04:46:22.755Z,12.81
2022-10-26T04:48:49.649Z,13.00
2022-10-26T04:51:16.695Z,12.69
2022-10-26T04:53:43.652Z,12.68
2022-10-26T04:56:10.604Z,12.66
2022-10-26T04:58:37.495Z,12.71
2022-10-26T05:01:04.626Z,12.85
2022-10-26T05:03:31.658Z,12.85
2022-10-26T05:05:59.761Z,12.73
2022-10-26T05:08:29.880Z,12.81
2022-10-26T05:10:57.120Z,12.78
2022-10-26T05:13:24.140Z,12.76
2022-10-26T05:15:54.491Z,12.75
2022-10-26T05:18:21.753Z,12.59
2022-10-26T05:20:50.336Z,12.72
2022-10-26T05:23:18.787Z,12.77
2022-10-26T05:25:46.547Z,12.66
2022-10-26T05:28:15.044Z,12.73
2022-10-26T05:30:44.128Z,12.67
2022-10-26T05:33:13.367Z,12.58
2022-10-26T05:35:40.847Z,12.59
2022-10-26T05:38:14.008Z,12.76
2022-10-26T05:40:48.836Z,12.70
2022-10-26T05:43:15.733Z,12.48
2022-10-26T05:45:42.760Z,12.71
2022-10-26T05:48:09.676Z,12.31
2022-10-26T05:50:36.719Z,12.56
2022-10-26T05:53:03.930Z,12.50
2022-10-26T05:55:31.197Z,12.46
2022-10-26T05:57:58.586Z,12.42
2022-10-26T06:00:28.134Z,12.69
2022-10-26T06:03:10.342Z,12.73
2022-10-26T06:05:58.885Z,12.72
2022-10-26T06:08:29.587Z,12.53
2022-10-26T06:10:59.586Z,12.64
2022-10-26T06:13:26.838Z,12.82
2022-10-26T06:16:18.440Z,12.67
2022-10-26T06:19:12.316Z,12.74
2022-10-26T06:21:59.227Z,12.73
2022-10-26T06:24:34.767Z,12.67
2022-10-26T06:27:17.057Z,12.88
2022-10-26T06:29:59.523Z,12.80
2022-10-26T06:32:26.582Z,12.83
2022-10-26T06:35:10.615Z,12.97
2022-10-26T06:37:39.096Z,12.96
2022-10-26T06:40:07.023Z,13.02
2022-10-26T06:42:34.107Z,13.17
2022-10-26T06:45:01.257Z,13.23
2022-10-26T06:47:48.772Z,13.32
2022-10-26T06:50:15.722Z,13.41
2022-10-26T06:52:51.597Z,13.36
2022-10-26T06:55:18.902Z,13.37
2022-10-26T06:57:46.214Z,13.45
2022-10-26T07:00:16.227Z,13.80
2022-10-26T07:02:43.239Z,13.99
2022-10-26T07:05:12.993Z,14.07
2022-10-26T07:07:45.734Z,14.07
2022-10-26T07:10:14.341Z,14.00
2022-10-26T07:12:41.682Z,14.18
2022-10-26T07:17:46.282Z,14.59
2022-10-26T07:20:13.952Z,14.71
2022-10-26T07:22:42.806Z,14.85
2022-10-26T07:25:11.700Z,14.93
2022-10-26T07:27:38.580Z,15.05
2022-10-26T07:30:06.150Z,14.87
2022-10-26T07:32:33.214Z,15.27
2022-10-26T07:35:00.214Z,15.35
2022-10-26T07:37:27.136Z,15.25
2022-10-26T07:39:54.109Z,15.58
2022-10-26T07:42:20.947Z,15.70
2022-10-26T07:44:47.835Z,15.64
2022-10-26T07:47:14.829Z,15.69
2022-10-26T07:49:41.644Z,15.90
2022-10-26T07:52:09.768Z,15.94
2022-10-26T07:54:36.934Z,16.19
2022-10-26T07:59:30.657Z,16.38
2022-10-26T08:01:57.595Z,16.34
2022-10-26T08:04:24.545Z,15.99
2022-10-26T08:06:51.424Z,16.68
2022-10-26T08:09:18.275Z,16.86
2022-10-26T08:11:45.189Z,16.88
2022-10-26T08:14:12.202Z,16.97
2022-10-26T08:16:40.586Z,17.18
2022-10-26T08:19:07.884Z,17.21
2022-10-26T08:21:39.789Z,17.08
2022-10-26T08:24:07.958Z,17.27
2022-10-26T08:26:34.975Z,17.47
2022-10-26T08:29:01.824Z,17.56
2022-10-26T08:31:28.803Z,17.54
2022-10-26T08:33:55.808Z,17.64
2022-10-26T08:36:27.934Z,17.86
2022-10-26T08:38:55.003Z,17.79
2022-10-26T08:41:30.648Z,17.87
2022-10-26T08:44:03.643Z,18.13
2022-10-26T08:46:45.734Z,18.17
2022-10-26T08:49:37.658Z,18.29
2022-10-26T08:52:05.865Z,18.32
2022-10-26T08:54:51.177Z,18.37
2022-10-26T08:57:38.856Z,18.49
2022-10-26T09:00:11.391Z,18.41
2022-10-26T09:02:38.324Z,18.41
2022-10-26T09:05:15.935Z,18.80
2022-10-26T09:08:12.879Z,18.91
2022-10-26T09:11:24.748Z,19.05
2022-10-26T09:14:10.185Z,19.11
2022-10-26T09:17:12.015Z,19.24
2022-10-26T09:20:09.499Z,19.34
2022-10-26T09:23:07.652Z,19.19
2022-10-26T09:25:41.830Z,19.56
2022-10-26T09:28:17.136Z,19.55
2022-10-26T09:30:45.789Z,19.47
2022-10-26T09:33:24.487Z,19.80
2022-10-26T09:35:54.345Z,19.90
2022-10-26T09:38:34.112Z,19.89
2022-10-26T09:41:10.009Z,20.12
2022-10-26T09:43:57.838Z,20.24
2022-10-26T09:46:46.720Z,20.25
2022-10-26T09:49:17.766Z,20.39
2022-10-26T09:51:46.464Z,20.32
2022-10-26T09:54:18.894Z,20.00
2022-10-26T09:56:50.293Z,20.61
2022-10-26T09:59:20.450Z,20.55
2022-10-26T10:01:47.342Z,20.70
2022-10-26T10:04:14.161Z,20.82
2022-10-26T10:06:41.460Z,20.88
2022-10-26T10:09:12.396Z,20.85
2022-10-26T10:11:44.273Z,21.03
2022-10-26T10:14:17.905Z,21.12
2022-10-26T10:16:54.959Z,21.07
2022-10-26T10:19:25.191Z,21.26
2022-10-26T10:21:55.286Z,21.23
2022-10-26T10:24:33.385Z,21.42
2022-10-26T10:27:17.933Z,21.52
2022-10-26T10:29:46.412Z,21.58
2022-10-26T10:32:21.118Z,21.26
2022-10-26T10:34:53.237Z,21.65
2022-10-26T10:37:27.742Z,21.75
2022-10-26T10:40:00.700Z,21.78
2022-10-26T10:42:32.609Z,21.83
2022-10-26T10:45:01.819Z,21.88
2022-10-26T10:47:33.621Z,21.97
2022-10-26T10:50:20.829Z,21.96
2022-10-26T10:52:48.152Z,21.96
2022-10-26T10:55:15.182Z,22.19
2022-10-26T10:57:51.414Z,22.22
2022-10-26T11:00:19.742Z,21.95
2022-10-26T11:03:23.265Z,22.38
2022-10-26T11:06:01.532Z,22.41
2022-10-26T11:08:40.425Z,22.39
2022-10-26T11:11:25.712Z,22.45
2022-10-26T11:13:55.309Z,22.46
2022-10-26T11:16:37.954Z,22.39
2022-10-26T11:19:16.783Z,22.55
2022-10-26T11:21:47.277Z,22.50
2022-10-26T11:24:32.058Z,22.61
2022-10-26T11:27:06.065Z,22.34
2022-10-26T11:30:17.953Z,22.69
2022-10-26T11:32:51.338Z,22.53
2022-10-26T11:35:20.504Z,22.68
2022-10-26T11:38:01.744Z,22.60
2022-10-26T11:40:58.767Z,22.76
2022-10-26T11:43:35.337Z,22.79
2022-10-26T11:46:20.408Z,22.69
2022-10-26T11:49:10.581Z,22.79
2022-10-26T11:51:51.961Z,22.81
2022-10-26T11:54:32.670Z,22.68
2022-10-26T11:57:01.209Z,22.35
2022-10-26T11:59:37.599Z,22.70
2022-10-26T12:02:16.404Z,22.54
2022-10-26T12:04:47.519Z,22.45
2022-10-26T12:07:46.368Z,22.32
2022-10-26T12:10:33.093Z,22.53
2022-10-26T12:13:05.979Z,22.57
2022-10-26T12:16:02.168Z,22.55
2022-10-26T12:18:57.737Z,22.35
2022-10-26T12:21:30.984Z,22.44
2022-10-26T12:24:22.143Z,22.41
2022-10-26T12:26:52.670Z,22.37
2022-10-26T12:29:31.422Z,22.32
2022-10-26T12:31:59.251Z,22.08
2022-10-26T12:34:31.943Z,22.31
2022-10-26T12:36:58.773Z,22.28
2022-10-26T12:39:40.739Z,22.21
2022-10-26T12:42:10.735Z,22.25
2022-10-26T12:45:02.098Z,22.27
2022-10-26T12:47:28.995Z,22.31
2022-10-26T12:50:22.846Z,22.33
2022-10-26T12:52:54.036Z,22.07
2022-10-26T12:55:30.542Z,22.19
2022-10-26T12:58:15.582Z,22.06
2022-10-26T13:01:07.887Z,21.97
2022-10-26T13:03:36.010Z,22.16
2022-10-26T13:06:36.716Z,22.11
2022-10-26T13:09:27.319Z,21.92
2022-10-26T13:11:56.850Z,21.86
2022-10-26T13:14:36.822Z,22.04
2022-10-26T13:17:22.225Z,21.82
2022-10-26T13:19:49.660Z,21.96
2022-10-26T13:22:20.735Z,21.85
2022-10-26T13:24:51.837Z,21.68
2022-10-26T13:27:18.658Z,21.98
2022-10-26T13:30:03.932Z,21.95
2022-10-26T13:32:35.501Z,21.96
2022-10-26T13:35:04.149Z,21.96
2022-10-26T13:37:34.151Z,21.91
2022-10-26T13:40:05.358Z,21.97
2022-10-26T13:42:48.156Z,21.98
2022-10-26T13:45:41.166Z,21.89
2022-10-26T13:48:16.964Z,21.68
2022-10-26T13:50:52.295Z,21.90
2022-10-26T13:53:37.577Z,21.81
2022-10-26T13:56:25.120Z,21.80
2022-10-26T13:59:03.716Z,21.66
2022-10-26T14:01:31.716Z,21.60
2022-10-26T14:03:58.950Z,21.48
2022-10-26T14:06:38.985Z,21.03
2022-10-26T14:09:17.152Z,21.21
2022-10-26T14:11:52.518Z,20.92
2022-10-26T14:14:24.417Z,20.80
2022-10-26T14:16:53.314Z,20.84
2022-10-26T14:19:30.167Z,20.65
2022-10-26T14:21:58.612Z,20.59
2022-10-26T14:24:45.718Z,20.66
2022-10-26T14:27:19.307Z,20.64
2022-10-26T14:30:03.752Z,20.62
2022-10-26T14:32:33.969Z,20.47
2022-10-26T14:35:01.018Z,20.32
2022-10-26T14:37:52.687Z,20.18
2022-10-26T14:40:23.341Z,20.45
2022-10-26T14:42:54.870Z,20.21
2022-10-26T14:45:30.099Z,20.37
2022-10-26T14:48:06.656Z,20.29
2022-10-26T14:50:34.674Z,20.20
2022-10-26T14:53:04.731Z,20.28
2022-10-26T14:55:43.482Z,19.92
2022-10-26T14:58:31.348Z,20.03
2022-10-26T15:01:23.228Z,20.16
2022-10-26T15:04:42.403Z,19.98
2022-10-26T15:07:16.756Z,20.02
2022-10-26T15:09:50.327Z,20.08
2022-10-26T15:12:46.091Z,20.03
2022-10-26T15:15:15.913Z,19.97
2022-10-26T15:17:55.549Z,19.96
2022-10-26T15:20:25.400Z,19.79
2022-10-26T15:22:54.770Z,19.86
2022-10-26T15:25:27.920Z,19.91
2022-10-26T15:27:55.014Z,19.83
2022-10-26T15:30:28.258Z,19.90
2022-10-26T15:32:56.233Z,19.73
2022-10-26T15:35:28.692Z,19.89
2022-10-26T15:37:57.022Z,19.88
2022-10-26T15:42:54.591Z,19.76
2022-10-26T15:45:24.575Z,19.70
2022-10-26T15:47:53.399Z,19.52
2022-10-26T15:50:26.066Z,19.64
2022-10-26T15:53:18.539Z,19.73
2022-10-26T15:55:45.500Z,19.72
2022-10-26T15:58:12.461Z,19.55
2022-10-26T16:00:39.384Z,19.69
2022-10-26T16:03:06.352Z,19.67
2022-10-26T16:05:33.291Z,19.37
2022-10-26T16:08:00.258Z,19.65
2022-10-26T16:10:27.370Z,19.64
2022-10-26T16:12:54.795Z,19.62
2022-10-26T16:15:25.238Z,19.47
2022-10-26T16:17:52.640Z,19.38
2022-10-26T16:20:23.082Z,19.61
2022-10-26T16:22:52.597Z,19.43
2022-10-26T16:25:23.710Z,19.37
2022-10-26T16:27:51.799Z,19.25
2022-10-26T16:30:19.139Z,19.17
2022-10-26T16:32:46.242Z,19.33
2022-10-26T16:35:13.809Z,19.27
2022-10-26T16:37:40.858Z,19.07
2022-10-26T16:40:09.294Z,19.24
2022-10-26T16:42:36.459Z,19.20
2022-10-26T16:45:03.995Z,19.06
2022-10-26T16:47:35.736Z,19.14
2022-10-26T16:50:04.530Z,19.13
2022-10-26T16:52:33.496Z,18.92
2022-10-26T16:55:00.484Z,18.98
2022-10-26T16:57:27.430Z,19.04
2022-10-26T16:59:54.333Z,18.74
2022-10-26T17:02:21.616Z,18.98
2022-10-26T17:04:48.587Z,18.99
2022-10-26T17:07:15.474Z,18.95
2022-10-26T17:09:42.383Z,18.78
2022-10-26T17:12:11.233Z,18.95
2022-10-26T17:14:38.323Z,18.64
2022-10-26T17:17:06.075Z,18.76
2022-10-26T17:19:33.078Z,18.57
2022-10-26T17:22:01.785Z,18.62
2022-10-26T17:24:30.785Z,18.62
2022-10-26T17:26:57.972Z,18.33
2022-10-26T17:29:24.925Z,18.61
2022-10-26T17:31:51.890Z,18.49
2022-10-26T17:34:18.835Z,18.60
2022-10-26T17:36:45.849Z,18.21
2022-10-26T17:39:12.979Z,18.37
2022-10-26T17:41:39.879Z,17.91
2022-10-26T17:44:06.762Z,18.51
2022-10-26T17:46:34.269Z,18.24
2022-10-26T17:49:01.772Z,18.45
2022-10-26T17:51:30.284Z,18.37
2022-10-26T17:53:59.185Z,18.37
2022-10-26T17:56:31.254Z,18.28
2022-10-26T17:59:00.849Z,18.36
2022-10-26T18:01:29.188Z,18.28
2022-10-26T18:03:56.379Z,18.19
2022-10-26T18:06:23.883Z,18.02
2022-10-26T18:08:51.140Z,17.99
2022-10-26T18:11:26.571Z,17.90
2022-10-26T18:13:57.646Z,18.04
2022-10-26T18:16:26.488Z,18.07
2022-10-26T18:19:02.175Z,17.74
2022-10-26T18:21:31.936Z,17.84
2022-10-26T18:23:59.728Z,17.81
2022-10-26T18:26:31.455Z,17.66
2022-10-26T18:28:59.618Z,17.41
2022-10-26T18:31:27.715Z,17.16
2022-10-26T18:33:56.571Z,17.46
2022-10-26T18:36:23.674Z,17.11
2022-10-26T18:38:50.663Z,17.02
2022-10-26T18:41:18.917Z,17.26
2022-10-26T18:43:51.068Z,16.90
2022-10-26T18:46:24.106Z,16.78
2022-10-26T18:48:55.601Z,16.67
2022-10-26T18:51:26.129Z,16.74
2022-10-26T18:53:53.053Z,16.65
2022-10-26T18:56:21.966Z,16.60
2022-10-26T18:58:51.052Z,16.31
2022-10-26T19:01:28.451Z,16.45
2022-10-26T19:04:04.716Z,16.38
2022-10-26T19:06:36.264Z,16.30
2022-10-26T19:09:04.597Z,16.13
2022-10-26T19:11:32.340Z,16.18
2022-10-26T19:13:59.627Z,16.02
2022-10-26T19:16:50.593Z,16.15
2022-10-26T19:19:18.984Z,16.01
2022-10-26T19:21:48.348Z,15.98
2022-10-26T19:24:20.728Z,16.13
2022-10-26T19:26:48.901Z,16.08
2022-10-26T19:29:17.021Z,15.59
2022-10-26T19:31:48.546Z,15.76
2022-10-26T19:34:16.691Z,15.89
2022-10-26T19:36:46.352Z,15.71
2022-10-26T19:39:17.822Z,15.99
2022-10-26T19:41:46.219Z,15.68
2022-10-26T19:44:14.749Z,15.81
2022-10-26T19:46:43.576Z,15.66
2022-10-26T19:49:10.779Z,15.89
2022-10-26T19:51:37.671Z,15.86
2022-10-26T19:54:07.300Z,15.84
2022-10-26T19:56:35.905Z,15.59
2022-10-26T19:59:03.277Z,15.81
2022-10-26T20:01:30.205Z,15.63
2022-10-26T20:03:57.428Z,15.47
2022-10-26T20:06:24.623Z,15.77
2022-10-26T20:08:51.775Z,15.49
2022-10-26T20:11:19.174Z,15.66
2022-10-26T20:13:47.549Z,15.66
2022-10-26T20:16:16.554Z,15.45
2022-10-26T20:18:47.655Z,15.23
2022-10-26T20:21:17.146Z,15.30
2022-10-26T20:23:45.131Z,15.48
2022-10-26T20:26:19.369Z,15.50
2022-10-26T20:28:51.502Z,15.50
2022-10-26T20:31:19.490Z,15.22
2022-10-26T20:33:49.689Z,15.15
2022-10-26T20:36:16.611Z,14.96
2022-10-26T20:38:43.800Z,15.13
2022-10-26T20:41:14.581Z,15.18
2022-10-26T20:43:42.733Z,14.96
2022-10-26T20:46:11.451Z,14.95
2022-10-26T20:48:38.897Z,14.97
2022-10-26T20:51:26.359Z,14.93
2022-10-26T20:54:06.532Z,14.95
2022-10-26T20:56:34.680Z,14.87
2022-10-26T20:59:04.055Z,14.81
2022-10-26T21:01:33.412Z,14.87
2022-10-26T21:04:02.601Z,14.65
2022-10-26T21:06:30.454Z,14.65
2022-10-26T21:08:57.657Z,14.60
2022-10-26T21:11:26.033Z,14.78
2022-10-26T21:13:54.112Z,14.78
2022-10-26T21:18:48.522Z,14.52
2022-10-26T21:21:15.726Z,14.74
2022-10-26T21:23:42.805Z,14.68
2022-10-26T21:26:10.339Z,14.42
2022-10-26T21:28:41.695Z,14.61
2022-10-26T21:31:13.712Z,14.58
2022-10-26T21:33:40.659Z,14.43
2022-10-26T21:36:09.861Z,14.51
2022-10-26T21:38:36.786Z,14.48
2022-10-26T21:41:07.654Z,14.47
2022-10-26T21:43:36.042Z,14.30
2022-10-26T21:46:04.014Z,14.14
2022-10-26T21:48:32.293Z,14.02
2022-10-26T21:51:02.329Z,13.92
2022-10-26T21:53:29.375Z,13.96
2022-10-26T21:56:03.516Z,13.97
2022-10-26T21:58:31.067Z,14.06
2022-10-26T22:01:06.161Z,14.07
2022-10-26T22:03:33.503Z,13.72
2022-10-26T22:06:00.865Z,13.97
2022-10-26T22:08:28.397Z,13.78
2022-10-26T22:10:56.112Z,13.69
2022-10-26T22:13:23.476Z,13.61
2022-10-26T22:16:04.890Z,13.70
2022-10-26T22:18:34.480Z,13.53
2022-10-26T22:21:01.672Z,13.73
2022-10-26T22:23:28.579Z,13.67
2022-10-26T22:26:00.957Z,13.59
2022-10-26T22:28:29.351Z,13.35
2022-10-26T22:31:01.423Z,13.59
2022-10-26T22:33:28.349Z,13.29
2022-10-26T22:35:55.229Z,13.60
2022-10-26T22:38:22.421Z,13.52
2022-10-26T22:40:56.337Z,13.17
2022-10-26T22:43:23.483Z,13.56
2022-10-26T22:46:06.797Z,13.54
2022-10-26T22:48:34.758Z,13.36
2022-10-26T22:51:20.801Z,13.54
2022-10-26T22:53:58.442Z,13.48
2022-10-26T22:58:53.626Z,13.50
2022-10-26T23:01:23.714Z,13.49
2022-10-26T23:03:52.010Z,13.44
2022-10-26T23:06:20.132Z,13.52
2022-10-26T23:08:47.208Z,13.40
2022-10-26T23:11:17.148Z,13.15
2022-10-26T23:13:44.643Z,13.22
2022-10-26T23:16:13.681Z,13.08
2022-10-26T23:18:40.655Z,13.33
2022-10-26T23:21:09.334Z,13.32
2022-10-26T23:23:36.464Z,13.29
2022-10-26T23:26:08.926Z,13.13
2022-10-26T23:28:36.796Z,13.26
2022-10-26T23:31:04.132Z,13.11
2022-10-26T23:33:31.699Z,12.93
2022-10-26T23:35:58.727Z,12.93
2022-10-26T23:38:26.262Z,12.95
2022-10-26T23:40:56.243Z,13.08
2022-10-26T23:43:23.901Z,12.84
2022-10-26T23:45:50.947Z,12.97
2022-10-26T23:48:19.387Z,13.07
2022-10-26T23:50:47.957Z,13.01
2022-10-26T23:53:16.215Z,13.01
2022-10-26T23:55:44.879Z,13.02
2022-10-26T23:58:12.183Z,13.00
